Time;durP1;ratioP1;P1;durP2;ratioP2;P2;SDS_P1;SDS_P2;PMS_P1;PMS_P2;Temp;Humidity;BMP_temperature;BMP_pressure;BME280_temperature;BME280_humidity;BME280_pressure;Samples;Min_cycle;Max_cycle;Signal;HPM_P1;HPM_P2
2021/12/09 00:00:28;;;;;;;2.47;1.97;;;;;;;;;;5010089;28;20186;-53
2021/12/09 00:02:56;;;;;;;4.07;2.87;;;;;;;;;;4994778;28;20895;-52
2021/12/09 00:05:22;;;;;;;3.00;2.27;;;;;;;;;;5006916;28;20623;-52
2021/12/09 00:07:51;;;;;;;5.53;2.60;;;;;;;;;;5007341;28;20174;-52
2021/12/09 00:10:21;;;;;;;2.47;2.07;;;;;;;;;;5005711;28;20631;-52
2021/12/09 00:12:47;;;;;;;5.10;2.60;;;;;;;;;;4983309;28;20547;-54
2021/12/09 00:15:13;;;;;;;4.83;2.40;;;;;;;;;;4990706;28;20230;-53
2021/12/09 00:17:39;;;;;;;3.03;2.47;;;;;;;;;;5002126;28;20581;-53
2021/12/09 00:20:06;;;;;;;3.77;2.50;;;;;;;;;;5010621;28;20530;-53
2021/12/09 00:22:32;;;;;;;5.63;2.67;;;;;;;;;;4998705;28;20187;-52
2021/12/09 00:24:58;;;;;;;5.77;2.60;;;;;;;;;;5010615;28;20185;-53
2021/12/09 00:27:25;;;;;;;3.97;3.07;;;;;;;;;;4991684;28;20185;-53
2021/12/09 00:29:51;;;;;;;3.23;2.50;;;;;;;;;;5011462;28;20171;-53
2021/12/09 00:32:18;;;;;;;5.27;3.13;;;;;;;;;;4989857;28;20193;-53
2021/12/09 00:34:47;;;;;;;6.17;2.50;;;;;;;;;;5007298;28;20281;-53
2021/12/09 00:37:23;;;;;;;4.93;2.53;;;;;;;;;;5006200;28;20210;-53
2021/12/09 00:39:51;;;;;;;7.73;3.13;;;;;;;;;;4992630;28;20193;-53
2021/12/09 00:42:18;;;;;;;4.07;2.67;;;;;;;;;;5008930;28;20690;-53
2021/12/09 00:44:44;;;;;;;3.40;2.63;;;;;;;;;;5003941;28;20218;-53
2021/12/09 00:47:13;;;;;;;3.80;2.60;;;;;;;;;;5004530;28;20226;-53
2021/12/09 00:49:39;;;;;;;4.90;2.63;;;;;;;;;;5005046;28;20180;-53
2021/12/09 00:52:06;;;;;;;6.30;3.03;;;;;;;;;;5009075;28;20201;-53
2021/12/09 00:54:33;;;;;;;3.03;2.37;;;;;;;;;;5010189;28;20910;-52
2021/12/09 00:56:59;;;;;;;4.47;2.57;;;;;;;;;;5015747;28;20537;-52
2021/12/09 00:59:25;;;;;;;2.77;2.47;;;;;;;;;;5010922;28;20201;-53
2021/12/09 01:01:51;;;;;;;4.73;2.87;;;;;;;;;;5020582;28;20182;-53
2021/12/09 01:04:18;;;;;;;2.87;2.17;;;;;;;;;;5022818;28;20190;-52
2021/12/09 01:06:44;;;;;;;4.53;2.70;;;;;;;;;;5022284;28;20184;-53
2021/12/09 01:09:10;;;;;;;5.40;3.00;;;;;;;;;;5028791;28;20190;-52
2021/12/09 01:11:36;;;;;;;4.17;2.90;;;;;;;;;;5027699;28;20265;-53
2021/12/09 01:14:03;;;;;;;4.70;2.87;;;;;;;;;;5029572;28;20553;-52
2021/12/09 01:16:31;;;;;;;3.77;2.20;;;;;;;;;;5027909;28;20197;-53
2021/12/09 01:18:58;;;;;;;4.57;2.63;;;;;;;;;;5024770;28;20555;-53
2021/12/09 01:21:24;;;;;;;5.67;3.00;;;;;;;;;;4990680;28;20236;-53
2021/12/09 01:23:50;;;;;;;4.37;2.80;;;;;;;;;;5027794;28;20178;-53
2021/12/09 01:26:17;;;;;;;3.87;2.43;;;;;;;;;;5028145;28;20197;-53
2021/12/09 01:28:55;;;;;;;6.93;3.10;;;;;;;;;;5029871;28;20181;-53
2021/12/09 01:31:26;;;;;;;4.50;3.10;;;;;;;;;;5002003;28;20930;-52
2021/12/09 01:33:54;;;;;;;6.30;3.33;;;;;;;;;;5028316;28;20220;-53
2021/12/09 01:36:20;;;;;;;4.30;2.80;;;;;;;;;;5029717;28;20597;-53
2021/12/09 01:38:47;;;;;;;4.03;2.97;;;;;;;;;;5011398;28;20767;-53
2021/12/09 01:41:13;;;;;;;3.37;2.30;;;;;;;;;;5027793;28;20181;-53
2021/12/09 01:43:40;;;;;;;3.73;2.53;;;;;;;;;;5014186;28;20192;-52
2021/12/09 01:46:07;;;;;;;5.10;3.40;;;;;;;;;;5000877;28;20232;-53
2021/12/09 01:48:34;;;;;;;3.20;2.57;;;;;;;;;;5028882;28;20200;-53
2021/12/09 01:51:00;;;;;;;6.57;3.07;;;;;;;;;;5011201;28;20182;-52
2021/12/09 01:53:30;;;;;;;6.20;2.80;;;;;;;;;;5022863;28;20256;-53
2021/12/09 01:56:06;;;;;;;4.63;2.83;;;;;;;;;;5026704;28;20197;-53
2021/12/09 01:58:32;;;;;;;5.47;3.13;;;;;;;;;;5025926;28;20512;-53
2021/12/09 02:01:01;;;;;;;3.40;2.90;;;;;;;;;;5010243;28;20666;-53
2021/12/09 02:03:28;;;;;;;3.77;2.30;;;;;;;;;;5010106;28;20228;-53
2021/12/09 02:05:55;;;;;;;6.70;3.30;;;;;;;;;;4981649;28;20183;-52
2021/12/09 02:08:21;;;;;;;3.93;2.67;;;;;;;;;;5025745;28;20242;-52
2021/12/09 02:10:48;;;;;;;6.30;2.93;;;;;;;;;;5000567;28;20209;-52
2021/12/09 02:13:16;;;;;;;4.83;3.20;;;;;;;;;;5028077;28;20243;-52
2021/12/09 02:15:42;;;;;;;4.30;3.10;;;;;;;;;;5023098;28;20324;-53
2021/12/09 02:18:10;;;;;;;3.30;2.70;;;;;;;;;;5024547;28;20182;-53
2021/12/09 02:20:38;;;;;;;4.10;2.77;;;;;;;;;;5026755;28;20174;-52
2021/12/09 02:23:08;;;;;;;3.90;2.97;;;;;;;;;;5010120;28;20181;-53
2021/12/09 02:25:35;;;;;;;4.87;3.17;;;;;;;;;;5011086;28;20276;-52
2021/12/09 02:28:02;;;;;;;4.33;2.60;;;;;;;;;;5026471;28;20173;-53
2021/12/09 02:30:28;;;;;;;3.43;2.57;;;;;;;;;;5011501;28;20563;-52
2021/12/09 02:32:54;;;;;;;3.30;2.43;;;;;;;;;;5008679;28;20246;-52
2021/12/09 02:35:21;;;;;;;5.03;2.53;;;;;;;;;;5010816;28;20182;-53
2021/12/09 02:37:49;;;;;;;3.70;2.77;;;;;;;;;;5010026;28;20174;-52
2021/12/09 02:40:16;;;;;;;4.40;2.80;;;;;;;;;;5009206;28;20213;-53
2021/12/09 02:42:42;;;;;;;4.67;2.67;;;;;;;;;;5008791;28;20185;-53
2021/12/09 02:45:11;;;;;;;3.83;2.40;;;;;;;;;;5010644;28;20502;-52
2021/12/09 02:47:37;;;;;;;4.03;2.97;;;;;;;;;;5018039;28;20658;-53
2021/12/09 02:50:05;;;;;;;4.80;2.50;;;;;;;;;;5035148;28;20564;-52
2021/12/09 02:52:38;;;;;;;5.87;3.23;;;;;;;;;;5020341;28;20275;-53
2021/12/09 02:55:05;;;;;;;5.03;2.57;;;;;;;;;;5014522;28;20269;-52
2021/12/09 02:57:31;;;;;;;5.33;2.97;;;;;;;;;;5014286;28;20252;-52
2021/12/09 03:00:01;;;;;;;3.13;2.57;;;;;;;;;;5009300;28;20660;-52
2021/12/09 03:02:27;;;;;;;3.50;2.47;;;;;;;;;;5018224;28;20182;-52
2021/12/09 03:04:55;;;;;;;3.60;2.50;;;;;;;;;;5027541;28;20182;-53
2021/12/09 03:07:23;;;;;;;5.63;2.43;;;;;;;;;;5028322;28;20189;-52
2021/12/09 03:09:53;;;;;;;3.77;2.80;;;;;;;;;;5025942;28;20549;-52
2021/12/09 03:12:22;;;;;;;4.50;2.43;;;;;;;;;;5025793;28;20196;-53
2021/12/09 03:14:48;;;;;;;4.30;2.60;;;;;;;;;;5034247;28;20197;-52
2021/12/09 03:17:15;;;;;;;5.83;2.80;;;;;;;;;;5015495;28;20182;-53
2021/12/09 03:19:41;;;;;;;4.23;2.70;;;;;;;;;;5004547;28;20206;-53
2021/12/09 03:22:08;;;;;;;3.50;2.40;;;;;;;;;;5023356;28;20241;-52
2021/12/09 03:24:34;;;;;;;5.47;2.57;;;;;;;;;;5034369;28;20536;-53
2021/12/09 03:27:00;;;;;;;5.57;3.17;;;;;;;;;;5028096;28;20632;-52
2021/12/09 03:29:31;;;;;;;6.60;2.43;;;;;;;;;;5016626;28;20189;-52
2021/12/09 03:32:01;;;;;;;5.20;2.83;;;;;;;;;;5031278;28;20242;-52
2021/12/09 03:34:31;;;;;;;3.17;2.20;;;;;;;;;;5030870;28;20189;-52
2021/12/09 03:36:59;;;;;;;4.70;2.33;;;;;;;;;;5033292;28;20182;-53
2021/12/09 03:39:27;;;;;;;4.53;2.63;;;;;;;;;;5028952;28;20666;-53
2021/12/09 03:41:55;;;;;;;4.70;2.50;;;;;;;;;;5030195;28;20526;-53
2021/12/09 03:44:22;;;;;;;4.03;2.60;;;;;;;;;;5034678;28;20223;-53
2021/12/09 03:46:48;;;;;;;3.53;2.63;;;;;;;;;;5015051;28;20239;-53
2021/12/09 03:49:18;;;;;;;4.97;2.97;;;;;;;;;;5035162;28;20648;-53
2021/12/09 03:51:44;;;;;;;5.00;2.40;;;;;;;;;;5034309;28;20518;-52
2021/12/09 03:54:11;;;;;;;3.77;2.53;;;;;;;;;;4994314;28;20269;-53
2021/12/09 03:56:38;;;;;;;4.50;2.60;;;;;;;;;;4996185;28;20689;-53
2021/12/09 03:59:06;;;;;;;4.77;2.60;;;;;;;;;;5008747;28;20289;-53
2021/12/09 04:01:33;;;;;;;4.10;2.73;;;;;;;;;;5017439;28;20768;-52
2021/12/09 04:04:01;;;;;;;5.97;3.33;;;;;;;;;;5008856;28;20190;-53
2021/12/09 04:06:29;;;;;;;5.93;2.60;;;;;;;;;;5011661;28;20271;-53
2021/12/09 04:08:56;;;;;;;6.13;2.50;;;;;;;;;;5013853;28;20182;-52
2021/12/09 04:11:23;;;;;;;5.17;2.87;;;;;;;;;;5001151;28;20671;-52
2021/12/09 04:13:49;;;;;;;4.43;2.90;;;;;;;;;;5012771;28;20189;-52
2021/12/09 04:16:16;;;;;;;4.43;3.37;;;;;;;;;;5007886;28;20373;-52
2021/12/09 04:18:42;;;;;;;4.17;2.90;;;;;;;;;;5008312;28;20293;-52
2021/12/09 04:21:09;;;;;;;5.10;2.63;;;;;;;;;;5008461;28;20197;-52
2021/12/09 04:23:35;;;;;;;3.93;2.90;;;;;;;;;;5010000;28;20628;-52
2021/12/09 04:26:02;;;;;;;3.60;2.50;;;;;;;;;;4995945;28;20613;-52
2021/12/09 04:28:28;;;;;;;3.47;2.70;;;;;;;;;;5001916;28;20186;-52
2021/12/09 04:30:54;;;;;;;6.03;2.40;;;;;;;;;;5006740;28;20608;-52
2021/12/09 04:33:20;;;;;;;4.20;3.00;;;;;;;;;;4997058;28;20191;-52
2021/12/09 04:35:47;;;;;;;6.90;2.57;;;;;;;;;;5010876;28;20194;-52
2021/12/09 04:38:13;;;;;;;5.07;3.03;;;;;;;;;;5009654;28;20557;-52
2021/12/09 04:40:39;;;;;;;3.97;2.37;;;;;;;;;;5010020;28;20257;-52
2021/12/09 04:43:06;;;;;;;3.60;2.60;;;;;;;;;;4994101;28;20197;-52
2021/12/09 04:45:34;;;;;;;5.27;3.30;;;;;;;;;;4994424;28;20185;-52
2021/12/09 04:48:01;;;;;;;5.73;2.73;;;;;;;;;;5004263;28;20175;-52
2021/12/09 04:50:27;;;;;;;4.87;2.60;;;;;;;;;;5007975;28;20186;-53
2021/12/09 04:52:54;;;;;;;4.27;2.80;;;;;;;;;;5005355;28;20229;-51
2021/12/09 04:55:20;;;;;;;5.70;2.87;;;;;;;;;;5010685;28;20184;-52
2021/12/09 04:57:46;;;;;;;3.90;2.77;;;;;;;;;;5020983;28;20200;-52
2021/12/09 05:00:15;;;;;;;3.87;2.90;;;;;;;;;;5022018;28;20680;-52
2021/12/09 05:03:02;;;;;;;4.70;2.80;;;;;;;;;;5024047;28;20177;-52
2021/12/09 05:05:32;;;;;;;3.93;2.70;;;;;;;;;;5028907;28;20640;-52
2021/12/09 05:07:58;;;;;;;4.77;3.07;;;;;;;;;;5026049;28;20304;-52
2021/12/09 05:10:25;;;;;;;3.23;2.47;;;;;;;;;;5026099;28;20188;-52
2021/12/09 05:12:51;;;;;;;4.47;3.10;;;;;;;;;;5013117;28;20256;-52
2021/12/09 05:15:17;;;;;;;5.13;2.80;;;;;;;;;;5013259;28;20196;-52
2021/12/09 05:17:44;;;;;;;3.67;2.70;;;;;;;;;;5017962;28;20264;-52
2021/12/09 05:20:10;;;;;;;4.33;2.67;;;;;;;;;;5029246;28;20198;-52
2021/12/09 05:22:37;;;;;;;5.97;3.07;;;;;;;;;;5013668;28;20272;-52
2021/12/09 05:25:03;;;;;;;2.47;2.27;;;;;;;;;;5023173;28;20185;-52
2021/12/09 05:27:30;;;;;;;3.90;2.20;;;;;;;;;;5012228;28;20220;-52
2021/12/09 05:30:11;;;;;;;3.87;3.00;;;;;;;;;;5030174;28;20703;-52
2021/12/09 05:32:38;;;;;;;5.90;3.23;;;;;;;;;;5025536;28;20177;-52
2021/12/09 05:35:06;;;;;;;4.00;3.60;;;;;;;;;;5029478;28;20691;-52
2021/12/09 05:37:32;;;;;;;4.17;2.77;;;;;;;;;;5028281;28;20178;-52
2021/12/09 05:39:59;;;;;;;5.93;3.17;;;;;;;;;;5023891;28;20355;-52
2021/12/09 05:42:25;;;;;;;6.57;3.10;;;;;;;;;;5028232;28;20200;-52
2021/12/09 05:44:52;;;;;;;4.77;2.83;;;;;;;;;;5012161;28;20640;-52
2021/12/09 05:47:19;;;;;;;4.40;2.83;;;;;;;;;;5010538;28;20261;-52
2021/12/09 05:49:49;;;;;;;4.03;2.60;;;;;;;;;;5024094;28;20598;-52
2021/12/09 05:52:16;;;;;;;4.93;3.07;;;;;;;;;;5005721;28;20301;-52
2021/12/09 05:54:42;;;;;;;2.73;2.40;;;;;;;;;;4996954;28;20237;-52
2021/12/09 05:57:08;;;;;;;4.40;2.83;;;;;;;;;;4993724;28;20313;-52
2021/12/09 05:59:38;;;;;;;6.37;3.13;;;;;;;;;;4995463;28;20501;-52
2021/12/09 06:02:07;;;;;;;5.17;3.27;;;;;;;;;;5004303;28;20174;-52
2021/12/09 06:04:33;;;;;;;5.53;3.03;;;;;;;;;;5003864;28;20191;-52
2021/12/09 06:07:03;;;;;;;4.47;2.90;;;;;;;;;;5008056;28;20237;-53
2021/12/09 06:09:30;;;;;;;5.03;2.80;;;;;;;;;;4970803;28;20207;-52
2021/12/09 06:11:56;;;;;;;5.53;2.60;;;;;;;;;;4989218;28;20202;-52
2021/12/09 06:14:23;;;;;;;5.27;2.53;;;;;;;;;;5008579;28;20537;-52
2021/12/09 06:16:49;;;;;;;5.03;2.77;;;;;;;;;;4989808;28;20565;-52
2021/12/09 06:19:16;;;;;;;4.90;3.00;;;;;;;;;;5008499;28;20681;-52
2021/12/09 06:21:42;;;;;;;6.03;3.20;;;;;;;;;;4988987;28;20182;-52
2021/12/09 06:24:08;;;;;;;3.60;2.90;;;;;;;;;;4990969;28;20174;-52
2021/12/09 06:26:35;;;;;;;2.87;2.57;;;;;;;;;;5008105;28;20803;-53
2021/12/09 06:29:07;;;;;;;4.60;3.17;;;;;;;;;;4995002;28;20182;-52
2021/12/09 06:31:33;;;;;;;5.23;3.03;;;;;;;;;;4990495;28;20229;-52
2021/12/09 06:34:00;;;;;;;3.93;2.70;;;;;;;;;;4991727;28;20266;-52
2021/12/09 06:36:26;;;;;;;5.13;3.27;;;;;;;;;;5000861;28;20324;-52
2021/12/09 06:38:52;;;;;;;3.67;2.63;;;;;;;;;;5007568;28;20226;-53
2021/12/09 06:41:18;;;;;;;5.10;3.47;;;;;;;;;;5008338;28;21017;-52
2021/12/09 06:43:45;;;;;;;4.93;3.07;;;;;;;;;;4996849;28;20211;-52
2021/12/09 06:46:12;;;;;;;3.37;2.60;;;;;;;;;;4983861;28;20182;-52
2021/12/09 06:48:39;;;;;;;5.90;3.20;;;;;;;;;;4990898;28;20579;-53
2021/12/09 06:51:08;;;;;;;8.67;2.60;;;;;;;;;;5009119;28;20955;-53
2021/12/09 06:53:35;;;;;;;6.03;2.83;;;;;;;;;;4998675;28;20279;-52
2021/12/09 06:56:02;;;;;;;3.83;2.93;;;;;;;;;;5028672;28;20207;-52
2021/12/09 06:58:28;;;;;;;3.50;3.10;;;;;;;;;;4991052;28;20457;-52
2021/12/09 07:00:55;;;;;;;3.90;2.80;;;;;;;;;;4991088;28;20174;-52
2021/12/09 07:03:22;;;;;;;4.13;2.80;;;;;;;;;;4972418;28;20959;-52
2021/12/09 07:05:51;;;;;;;4.50;3.10;;;;;;;;;;5021585;28;20428;-52
2021/12/09 07:08:17;;;;;;;4.37;3.33;;;;;;;;;;5011022;28;20413;-52
2021/12/09 07:10:44;;;;;;;3.80;3.20;;;;;;;;;;5010604;28;20279;-52
2021/12/09 07:13:10;;;;;;;6.47;3.33;;;;;;;;;;5011286;28;20198;-53
2021/12/09 07:15:37;;;;;;;7.07;3.30;;;;;;;;;;5010408;28;20182;-52
2021/12/09 07:18:03;;;;;;;4.87;3.20;;;;;;;;;;5007000;28;20175;-52
2021/12/09 07:20:29;;;;;;;8.50;3.67;;;;;;;;;;4990727;28;20790;-52
2021/12/09 07:22:56;;;;;;;7.23;3.40;;;;;;;;;;4974561;28;20449;-52
2021/12/09 07:25:23;;;;;;;7.93;3.30;;;;;;;;;;4994495;28;20439;-52
2021/12/09 07:27:50;;;;;;;13.77;3.50;;;;;;;;;;4990481;28;20466;-52
2021/12/09 07:30:17;;;;;;;5.37;3.27;;;;;;;;;;5008264;28;20186;-52
2021/12/09 07:32:44;;;;;;;6.50;3.50;;;;;;;;;;4998246;28;20290;-53
2021/12/09 07:35:11;;;;;;;3.70;3.07;;;;;;;;;;4991773;28;20527;-53
2021/12/09 07:37:38;;;;;;;6.53;3.20;;;;;;;;;;5022848;28;20654;-52
2021/12/09 07:40:06;;;;;;;4.70;3.57;;;;;;;;;;4990260;28;20560;-53
2021/12/09 07:42:32;;;;;;;9.07;3.67;;;;;;;;;;5006719;28;20257;-53
2021/12/09 07:44:59;;;;;;;5.43;3.50;;;;;;;;;;5004081;28;20187;-53
2021/12/09 07:47:25;;;;;;;6.17;3.57;;;;;;;;;;4988467;28;20193;-52
2021/12/09 07:49:52;;;;;;;7.80;4.47;;;;;;;;;;5007647;28;20193;-52
2021/12/09 07:52:21;;;;;;;5.30;3.40;;;;;;;;;;5011892;28;20217;-52
2021/12/09 07:54:48;;;;;;;5.93;3.53;;;;;;;;;;5027482;28;20416;-52
2021/12/09 07:57:14;;;;;;;4.70;3.47;;;;;;;;;;5009309;28;21007;-52
2021/12/09 07:59:40;;;;;;;9.30;4.17;;;;;;;;;;5013818;28;20555;-52
2021/12/09 08:02:07;;;;;;;10.33;4.00;;;;;;;;;;4995241;28;20186;-52
2021/12/09 08:04:34;;;;;;;8.20;4.67;;;;;;;;;;5028560;28;20667;-52
2021/12/09 08:07:01;;;;;;;5.83;4.13;;;;;;;;;;5013420;28;21010;-52
2021/12/09 08:09:29;;;;;;;10.83;5.30;;;;;;;;;;5013179;28;20823;-52
2021/12/09 08:11:56;;;;;;;7.37;4.47;;;;;;;;;;5030982;28;20787;-52
2021/12/09 08:14:23;;;;;;;6.17;4.33;;;;;;;;;;5012731;28;20456;-52
2021/12/09 08:17:07;;;;;;;7.13;4.67;;;;;;;;;;5014028;28;20259;-52
2021/12/09 08:19:34;;;;;;;5.90;4.87;;;;;;;;;;5023729;28;20448;-52
2021/12/09 08:22:00;;;;;;;7.33;4.83;;;;;;;;;;5012441;28;20516;-52
2021/12/09 08:24:26;;;;;;;7.47;5.50;;;;;;;;;;5014483;28;20424;-52
2021/12/09 08:26:53;;;;;;;10.27;5.30;;;;;;;;;;5012009;28;20547;-52
2021/12/09 08:29:19;;;;;;;9.90;5.30;;;;;;;;;;5013176;28;20661;-52
2021/12/09 08:31:45;;;;;;;7.87;5.50;;;;;;;;;;5011928;28;20185;-52
2021/12/09 08:34:11;;;;;;;6.53;5.10;;;;;;;;;;5012624;28;20445;-52
2021/12/09 08:36:38;;;;;;;10.27;6.50;;;;;;;;;;5030683;28;20177;-52
2021/12/09 08:39:05;;;;;;;7.20;5.83;;;;;;;;;;5012234;28;20205;-52
2021/12/09 08:41:31;;;;;;;7.17;5.60;;;;;;;;;;5028006;28;20423;-52
2021/12/09 08:43:58;;;;;;;12.77;6.57;;;;;;;;;;5034482;28;20409;-52
2021/12/09 08:46:24;;;;;;;13.87;6.50;;;;;;;;;;4995521;28;20408;-52
2021/12/09 08:48:50;;;;;;;7.17;6.40;;;;;;;;;;5030696;28;20699;-52
2021/12/09 08:51:17;;;;;;;10.23;6.37;;;;;;;;;;5031175;28;20422;-52
2021/12/09 08:53:43;;;;;;;7.83;7.00;;;;;;;;;;5029500;28;20475;-52
2021/12/09 08:56:09;;;;;;;12.10;6.93;;;;;;;;;;5014042;28;20760;-52
2021/12/09 08:58:36;;;;;;;12.63;7.50;;;;;;;;;;5037390;28;20202;-53
2021/12/09 09:01:04;;;;;;;12.60;6.90;;;;;;;;;;5030558;28;20773;-53
2021/12/09 09:03:30;;;;;;;8.80;7.00;;;;;;;;;;5029270;28;20448;-52
2021/12/09 09:05:56;;;;;;;9.30;7.23;;;;;;;;;;5012800;28;20903;-52
2021/12/09 09:08:22;;;;;;;16.17;7.17;;;;;;;;;;5024050;28;20430;-52
2021/12/09 09:10:49;;;;;;;8.90;6.70;;;;;;;;;;5030009;28;20453;-53
2021/12/09 09:13:15;;;;;;;11.03;7.03;;;;;;;;;;5029563;28;20424;-53
2021/12/09 09:15:42;;;;;;;8.83;6.63;;;;;;;;;;5029460;28;20420;-52
2021/12/09 09:18:09;;;;;;;11.00;6.57;;;;;;;;;;5019828;28;20178;-53
2021/12/09 09:20:39;;;;;;;11.77;6.77;;;;;;;;;;5012119;28;20464;-53
2021/12/09 09:23:08;;;;;;;10.90;7.23;;;;;;;;;;5011720;28;20178;-53
2021/12/09 09:25:34;;;;;;;9.63;5.90;;;;;;;;;;5014573;28;20417;-53
2021/12/09 09:28:01;;;;;;;8.17;5.90;;;;;;;;;;5029583;28;20429;-53
2021/12/09 09:30:35;;;;;;;7.23;5.87;;;;;;;;;;5030290;28;20181;-53
2021/12/09 09:33:03;;;;;;;8.53;6.27;;;;;;;;;;5028678;28;20434;-53
2021/12/09 09:35:29;;;;;;;8.37;5.70;;;;;;;;;;5029180;28;20703;-53
2021/12/09 09:37:56;;;;;;;6.93;5.30;;;;;;;;;;5011703;28;20678;-53
2021/12/09 09:40:27;;;;;;;9.13;5.57;;;;;;;;;;5029296;28;20198;-53
2021/12/09 09:43:04;;;;;;;8.47;5.07;;;;;;;;;;5028972;28;20912;-53
2021/12/09 09:45:31;;;;;;;5.63;4.73;;;;;;;;;;5029127;28;20420;-53
2021/12/09 09:47:58;;;;;;;7.63;5.33;;;;;;;;;;5026776;28;20248;-53
2021/12/09 09:50:25;;;;;;;8.17;5.77;;;;;;;;;;5029199;28;20523;-53
2021/12/09 09:52:51;;;;;;;7.73;4.83;;;;;;;;;;5002804;28;20611;-54
2021/12/09 09:55:21;;;;;;;6.33;4.37;;;;;;;;;;4989673;28;20194;-53
2021/12/09 09:57:48;;;;;;;6.43;4.50;;;;;;;;;;4991814;28;20207;-53
2021/12/09 10:00:16;;;;;;;6.07;4.20;;;;;;;;;;5008878;28;20256;-53
2021/12/09 10:02:43;;;;;;;7.53;5.03;;;;;;;;;;4990557;28;20678;-53
2021/12/09 10:05:10;;;;;;;5.47;4.10;;;;;;;;;;5008518;28;20536;-53
2021/12/09 10:07:37;;;;;;;7.03;4.57;;;;;;;;;;5009234;28;20236;-53
2021/12/09 10:10:07;;;;;;;8.33;4.43;;;;;;;;;;5009035;28;20220;-53
2021/12/09 10:12:33;;;;;;;5.43;3.87;;;;;;;;;;4992046;28;20318;-53
2021/12/09 10:14:59;;;;;;;6.10;3.83;;;;;;;;;;4988224;28;20238;-53
2021/12/09 10:17:27;;;;;;;5.47;4.00;;;;;;;;;;4992732;28;20201;-53
2021/12/09 10:19:55;;;;;;;7.57;4.07;;;;;;;;;;5006451;28;20464;-53
2021/12/09 10:22:35;;;;;;;5.20;3.80;;;;;;;;;;4991623;28;20569;-53
2021/12/09 10:25:04;;;;;;;9.73;3.77;;;;;;;;;;5011188;28;20622;-53
2021/12/09 10:27:34;;;;;;;7.60;4.10;;;;;;;;;;4991201;28;20421;-53
2021/12/09 10:30:15;;;;;;;7.83;4.30;;;;;;;;;;4991597;28;20186;-53
2021/12/09 10:32:45;;;;;;;5.30;3.70;;;;;;;;;;4990007;28;20281;-58
2021/12/09 10:35:19;;;;;;;7.67;5.00;;;;;;;;;;4997379;28;20328;-53
2021/12/09 10:37:47;;;;;;;5.10;3.83;;;;;;;;;;5008167;28;20186;-53
2021/12/09 10:40:19;;;;;;;4.97;3.60;;;;;;;;;;4975552;28;20653;-53
2021/12/09 10:42:47;;;;;;;8.93;3.87;;;;;;;;;;5004354;28;20413;-53
2021/12/09 10:45:23;;;;;;;5.90;4.37;;;;;;;;;;5009298;28;20236;-53
2021/12/09 10:48:01;;;;;;;8.20;4.30;;;;;;;;;;5007055;28;20622;-53
2021/12/09 10:53:05;;;;;;;7.83;3.63;;;;;;;;;;5016827;28;20229;-53
2021/12/09 10:55:36;;;;;;;5.10;3.87;;;;;;;;;;5012653;28;20513;-52
2021/12/09 10:58:08;;;;;;;6.00;3.40;;;;;;;;;;5010207;28;20427;-53
2021/12/09 11:00:39;;;;;;;5.50;3.63;;;;;;;;;;5028728;28;20606;-53
2021/12/09 11:03:07;;;;;;;5.17;3.43;;;;;;;;;;5008955;28;20421;-53
2021/12/09 11:05:36;;;;;;;6.20;3.80;;;;;;;;;;5009240;28;20506;-53
2021/12/09 11:08:20;;;;;;;7.47;4.13;;;;;;;;;;5008527;28;20424;-53
2021/12/09 11:10:48;;;;;;;6.43;4.07;;;;;;;;;;5028525;28;20582;-53
2021/12/09 11:13:19;;;;;;;5.37;3.57;;;;;;;;;;5006484;28;20272;-53
2021/12/09 11:15:53;;;;;;;12.87;3.43;;;;;;;;;;5026014;28;20184;-53
2021/12/09 11:18:26;;;;;;;7.93;3.67;;;;;;;;;;5008977;28;20215;-53
2021/12/09 11:20:53;;;;;;;7.70;4.40;;;;;;;;;;5011307;28;20182;-53
2021/12/09 11:23:26;;;;;;;5.43;3.00;;;;;;;;;;5028183;28;20239;-53
2021/12/09 11:25:54;;;;;;;5.97;3.80;;;;;;;;;;5035105;28;20193;-53
2021/12/09 11:28:20;;;;;;;7.30;3.57;;;;;;;;;;5014289;28;20186;-53
2021/12/09 11:31:05;;;;;;;5.17;3.67;;;;;;;;;;5028606;28;20221;-53
2021/12/09 11:33:36;;;;;;;6.63;3.87;;;;;;;;;;5029987;28;20217;-53
2021/12/09 11:36:02;;;;;;;6.77;3.90;;;;;;;;;;5014744;28;20181;-53
2021/12/09 11:38:56;;;;;;;7.20;3.67;;;;;;;;;;5014239;28;20908;-53
2021/12/09 11:41:32;;;;;;;5.53;2.70;;;;;;;;;;5017083;28;20236;-53
2021/12/09 11:43:59;;;;;;;4.40;3.20;;;;;;;;;;5011307;28;20193;-53
2021/12/09 11:46:25;;;;;;;5.47;3.83;;;;;;;;;;5011184;28;20182;-53
2021/12/09 11:48:51;;;;;;;4.17;3.60;;;;;;;;;;5028686;28;20241;-53
2021/12/09 11:51:18;;;;;;;6.47;3.47;;;;;;;;;;5033813;28;20201;-53
2021/12/09 11:53:45;;;;;;;5.70;3.73;;;;;;;;;;5010809;28;20257;-53
2021/12/09 12:13:34;;;;;;;5.07;3.30;;;;;;;;;;5010270;28;20252;-53
2021/12/09 12:16:21;;;;;;;6.33;3.90;;;;;;;;;;5010219;28;20294;-54
2021/12/09 12:18:59;;;;;;;4.93;3.47;;;;;;;;;;5009457;28;20221;-53
2021/12/09 12:24:24;;;;;;;6.30;3.77;;;;;;;;;;5011644;28;20179;-53
2021/12/09 12:27:10;;;;;;;4.53;3.53;;;;;;;;;;4986238;28;20265;-53
2021/12/09 12:30:26;;;;;;;5.00;4.00;;;;;;;;;;4992403;28;20525;-53
2021/12/09 12:35:53;;;;;;;6.57;3.80;;;;;;;;;;5009368;28;20195;-53
2021/12/09 12:40:59;;;;;;;5.57;3.73;;;;;;;;;;5003649;28;20594;-56
2021/12/09 12:43:26;;;;;;;9.23;4.57;;;;;;;;;;4990987;28;20190;-53
2021/12/09 12:48:50;;;;;;;6.23;3.50;;;;;;;;;;5006616;28;20252;-53
2021/12/09 12:51:24;;;;;;;6.87;3.60;;;;;;;;;;5004513;28;20217;-53
2021/12/09 12:53:55;;;;;;;5.83;3.67;;;;;;;;;;5025487;28;20235;-53
2021/12/09 12:56:24;;;;;;;5.90;3.43;;;;;;;;;;5022566;28;20217;-53
2021/12/09 12:59:15;;;;;;;4.87;3.00;;;;;;;;;;5026567;28;20688;-53
2021/12/09 13:02:02;;;;;;;5.00;3.07;;;;;;;;;;5003722;28;20195;-53
2021/12/09 13:04:46;;;;;;;7.83;4.00;;;;;;;;;;5016102;28;20695;-53
2021/12/09 13:07:20;;;;;;;7.33;3.00;;;;;;;;;;5016733;28;20170;-53
2021/12/09 13:10:02;;;;;;;8.47;3.17;;;;;;;;;;5025515;28;20510;-53
2021/12/09 13:12:45;;;;;;;3.67;3.03;;;;;;;;;;5011865;28;20243;-53
2021/12/09 13:15:21;;;;;;;5.47;3.27;;;;;;;;;;5009008;28;20236;-53
2021/12/09 13:17:59;;;;;;;4.40;3.17;;;;;;;;;;5029000;28;20193;-53
2021/12/09 13:20:33;;;;;;;5.80;3.20;;;;;;;;;;5029332;28;20536;-53
2021/12/09 13:23:18;;;;;;;4.90;3.10;;;;;;;;;;5029521;28;20208;-53
2021/12/09 13:26:08;;;;;;;5.10;2.97;;;;;;;;;;5028672;28;20186;-53
2021/12/09 13:28:41;;;;;;;5.73;2.97;;;;;;;;;;5003834;28;20206;-53
2021/12/09 13:31:31;;;;;;;3.70;3.00;;;;;;;;;;5028525;28;20186;-53
2021/12/09 13:34:09;;;;;;;4.67;2.73;;;;;;;;;;5028716;28;20463;-53
2021/12/09 13:37:02;;;;;;;4.17;2.63;;;;;;;;;;5012525;28;20173;-53
2021/12/09 13:40:05;;;;;;;5.57;2.70;;;;;;;;;;5028499;28;20590;-53
2021/12/09 13:48:20;;;;;;;5.70;2.93;;;;;;;;;;5028041;28;20240;-53
2021/12/09 13:50:59;;;;;;;3.77;3.17;;;;;;;;;;5013306;28;20253;-53
2021/12/09 13:56:10;;;;;;;3.90;3.03;;;;;;;;;;5029636;28;20742;-53
2021/12/09 13:58:37;;;;;;;4.40;3.20;;;;;;;;;;5029076;28;20182;-53
2021/12/09 14:01:04;;;;;;;5.03;2.93;;;;;;;;;;5028382;28;20771;-53
2021/12/09 14:03:30;;;;;;;5.20;2.90;;;;;;;;;;5026981;28;21766;-53
2021/12/09 14:06:05;;;;;;;3.97;3.00;;;;;;;;;;5017218;28;20197;-53
2021/12/09 14:08:39;;;;;;;5.83;2.60;;;;;;;;;;5018231;28;20182;-53
2021/12/09 14:11:09;;;;;;;5.10;2.60;;;;;;;;;;5026818;28;20626;-53
2021/12/09 14:13:39;;;;;;;4.50;2.90;;;;;;;;;;5001484;28;20197;-53
2021/12/09 14:16:17;;;;;;;3.53;2.30;;;;;;;;;;5015924;28;20186;-53
2021/12/09 14:21:33;;;;;;;5.73;3.00;;;;;;;;;;4987443;28;20178;-53
2021/12/09 14:24:03;;;;;;;3.10;2.47;;;;;;;;;;5007299;28;20675;-53
2021/12/09 14:26:30;;;;;;;3.67;2.50;;;;;;;;;;5029051;28;20711;-53
2021/12/09 14:29:00;;;;;;;4.73;2.63;;;;;;;;;;5010510;28;20591;-53
2021/12/09 14:31:26;;;;;;;2.93;2.63;;;;;;;;;;5009131;28;20189;-53
2021/12/09 14:33:53;;;;;;;3.07;2.30;;;;;;;;;;5016988;28;20232;-53
2021/12/09 14:36:22;;;;;;;3.27;2.90;;;;;;;;;;5022768;28;20710;-53
2021/12/09 14:38:49;;;;;;;3.20;2.90;;;;;;;;;;5009785;28;20759;-53
2021/12/09 14:41:17;;;;;;;2.87;2.57;;;;;;;;;;5022529;28;20221;-52
2021/12/09 14:43:46;;;;;;;2.73;2.43;;;;;;;;;;5026791;28;20640;-53
2021/12/09 14:46:18;;;;;;;3.53;2.40;;;;;;;;;;5014518;28;20209;-53
2021/12/09 14:48:47;;;;;;;3.17;2.50;;;;;;;;;;5009405;28;20268;-53
2021/12/09 14:51:16;;;;;;;4.33;2.87;;;;;;;;;;5009170;28;20658;-54
2021/12/09 14:53:43;;;;;;;2.80;2.50;;;;;;;;;;4985993;28;20234;-53
2021/12/09 14:56:28;;;;;;;2.57;2.37;;;;;;;;;;4999588;28;20198;-54
2021/12/09 14:58:55;;;;;;;3.43;2.50;;;;;;;;;;4989893;28;20296;-53
2021/12/09 15:01:23;;;;;;;4.47;2.43;;;;;;;;;;5007122;28;20194;-53
2021/12/09 15:03:58;;;;;;;4.90;3.23;;;;;;;;;;4995220;28;20186;-54
2021/12/09 15:06:28;;;;;;;3.03;2.50;;;;;;;;;;5011512;28;20178;-53
2021/12/09 15:09:11;;;;;;;5.83;3.13;;;;;;;;;;5006031;28;20182;-54
2021/12/09 15:11:39;;;;;;;5.77;2.90;;;;;;;;;;5020246;28;20177;-53
2021/12/09 15:14:10;;;;;;;3.87;2.70;;;;;;;;;;5009972;28;20548;-53
2021/12/09 15:16:37;;;;;;;5.17;3.17;;;;;;;;;;5001927;28;20309;-53
2021/12/09 15:19:15;;;;;;;6.53;2.90;;;;;;;;;;4990148;28;20257;-53
2021/12/09 15:21:42;;;;;;;3.97;2.87;;;;;;;;;;4989995;28;20701;-53
2021/12/09 15:24:11;;;;;;;3.33;2.83;;;;;;;;;;5005973;28;20194;-53
2021/12/09 15:26:42;;;;;;;4.33;3.20;;;;;;;;;;5008196;28;20191;-53
2021/12/09 15:29:14;;;;;;;4.73;3.23;;;;;;;;;;5009194;28;20476;-53
2021/12/09 15:31:42;;;;;;;4.00;2.87;;;;;;;;;;4989176;28;20178;-53
2021/12/09 15:34:15;;;;;;;2.80;2.60;;;;;;;;;;4989333;28;20194;-53
2021/12/09 15:36:46;;;;;;;2.93;2.47;;;;;;;;;;5007609;28;20298;-53